Lexington, Nebraska
Current Conditions -  °F | °C
As of 2:55 AM on Saturday 29 Nov 2014 (Local Time) from KLXN Reporting Station
Clear Clear  
Wind Chill: 27°   Ceiling: Unl
Heat Index: 33°   Visibility: 10mi
Dew Point: 20°   Wind: 7mph
Humidity: 59%   Direction: 290°WNW
Pressure: 29.63"   Gusts: NA
Location:  40.78°N, 99.74°W
Report Text: KLXN 290855Z AUTO 29006KT 10SM CLR 01/M06 A2963 RMK AO2 T00071065
Loading
Personal Weather Stations






























Interactive Weather Map New forecast layout! Learn more

10-Day Weather Forecast

Advertisements
Track Severe Weather on mobile